createdAt,value
2022-12-31T00:22:06.971Z,15.02
2022-12-31T00:50:54.974Z,15.03
2022-12-31T01:19:48.137Z,15.02
2022-12-31T01:48:42.195Z,15.03
2022-12-31T02:17:33.306Z,15.03
2022-12-31T02:46:33.860Z,15.02
2022-12-31T03:15:29.773Z,15.03
2022-12-31T03:44:28.856Z,15.03
2022-12-31T04:13:28.786Z,15.03
2022-12-31T04:42:29.009Z,15.03
2022-12-31T05:11:30.293Z,15.03
2022-12-31T05:40:31.868Z,15.03
2022-12-31T06:09:28.847Z,15.03
2022-12-31T06:38:27.239Z,15.04
2022-12-31T07:07:26.089Z,15.04
2022-12-31T07:36:22.273Z,15.03
2022-12-31T08:05:12.105Z,15.05
2022-12-31T08:34:06.600Z,15.06
2022-12-31T09:02:48.530Z,15.07
2022-12-31T09:31:00.430Z,15.09
2022-12-31T09:59:33.379Z,15.1
2022-12-31T10:28:08.571Z,15.11
2022-12-31T10:56:39.931Z,15.23
2022-12-31T11:25:20.156Z,15.31
2022-12-31T11:54:04.683Z,15.4
2022-12-31T12:22:49.826Z,15.49
2022-12-31T12:51:07.868Z,15.55
2022-12-31T13:19:43.365Z,15.63
2022-12-31T13:48:13.652Z,15.71
2022-12-31T14:16:49.197Z,15.75
2022-12-31T14:45:20.930Z,15.8
2022-12-31T15:13:58.918Z,15.86
2022-12-31T15:42:50.505Z,15.88
2022-12-31T16:11:06.994Z,15.91
2022-12-31T16:39:50.322Z,15.93
2022-12-31T17:08:30.657Z,15.95
2022-12-31T17:37:18.639Z,15.98
2022-12-31T18:05:37.148Z,16
2022-12-31T18:34:07.190Z,16.03
2022-12-31T19:02:40.504Z,16.04
2022-12-31T19:31:15.975Z,16.05
2022-12-31T19:59:57.499Z,16.06
2022-12-31T20:28:30.020Z,16.08
2022-12-31T20:57:10.464Z,16.11
2022-12-31T21:25:44.772Z,16.12
2022-12-31T21:54:19.985Z,16.13
2022-12-31T22:23:04.344Z,16.15
2022-12-31T22:51:55.436Z,16.17
2022-12-31T23:20:09.457Z,16.2
2022-12-31T23:48:44.141Z,16.22
